Torbert, Louisiana
Current Conditions -  °F | °C
As of 4:15 PM on Friday 24 Oct 2014 (Local Time) from KHZR Reporting Station
Clear Clear  
Wind Chill: 73°   Ceiling: Unl
Heat Index: 73°   Visibility: 10mi
Dew Point: 51°   Wind: 9mph
Humidity: 45%   Direction: 310°NW
Pressure: 30.07"   Gusts: NA
Location:  30.55°N, 91.49°W
Report Text: KHZR 242115Z AUTO 31008KT 10SM CLR 23/11 A3007 RMK AO2 T02300105
Loading
Personal Weather Stations






























Interactive Weather Map
Tropical Storm Tracking
New forecast layout! Learn more

10-Day Weather Forecast

Advertisements
Track Severe Weather on mobile